createdAt,value
2023-10-03T00:00:23.722Z,10.10
2023-10-03T00:02:56.783Z,9.80
2023-10-03T00:05:29.226Z,10.55
2023-10-03T00:07:58.724Z,10.70
2023-10-03T00:10:27.534Z,9.90
2023-10-03T00:12:55.842Z,10.27
2023-10-03T00:15:25.835Z,10.18
2023-10-03T00:17:55.955Z,10.10
2023-10-03T00:20:24.632Z,10.15
2023-10-03T00:22:53.387Z,10.00
2023-10-03T00:25:24.809Z,9.90
2023-10-03T00:27:53.933Z,10.35
2023-10-03T00:30:24.791Z,9.70
2023-10-03T00:32:53.785Z,10.25
2023-10-03T00:35:23.763Z,10.02
2023-10-03T00:37:53.355Z,11.50
2023-10-03T00:40:30.076Z,9.43
2023-10-03T00:43:02.343Z,9.65
2023-10-03T00:45:32.992Z,9.30
2023-10-03T00:48:03.040Z,9.38
2023-10-03T00:50:35.046Z,10.50
2023-10-03T00:53:07.006Z,10.30
2023-10-03T00:55:35.994Z,9.63
2023-10-03T00:58:08.899Z,10.00
2023-10-03T01:00:39.892Z,10.23
2023-10-03T01:03:10.391Z,10.48
2023-10-03T01:05:40.415Z,10.73
2023-10-03T01:08:09.660Z,10.38
2023-10-03T01:10:38.664Z,10.43
2023-10-03T01:13:13.033Z,9.90
2023-10-03T01:15:41.534Z,10.00
2023-10-03T01:18:14.359Z,9.55
2023-10-03T01:20:44.184Z,10.82
2023-10-03T01:23:15.466Z,9.43
2023-10-03T01:25:45.693Z,10.13
2023-10-03T01:28:14.516Z,10.38
2023-10-03T01:30:43.285Z,10.30
2023-10-03T01:33:12.213Z,10.98
2023-10-03T01:35:41.207Z,10.40
2023-10-03T01:38:10.597Z,11.38
2023-10-03T01:40:42.667Z,10.77
2023-10-03T01:43:11.250Z,11.35
2023-10-03T01:45:39.597Z,11.57
2023-10-03T01:48:08.809Z,11.32
2023-10-03T01:50:37.284Z,10.88
2023-10-03T01:53:06.146Z,12.25
2023-10-03T01:55:34.934Z,11.80
2023-10-03T01:58:06.168Z,11.65
2023-10-03T02:00:36.584Z,10.88
2023-10-03T02:03:06.841Z,11.45
2023-10-03T02:05:37.379Z,11.27
2023-10-03T02:08:09.116Z,11.88
2023-10-03T02:10:37.598Z,11.88
2023-10-03T02:13:10.960Z,10.00
2023-10-03T02:15:39.731Z,11.27
2023-10-03T02:18:10.044Z,11.57
2023-10-03T02:20:48.464Z,11.95
2023-10-03T02:23:20.202Z,11.65
2023-10-03T02:25:50.006Z,11.23
2023-10-03T02:28:20.995Z,12.02
2023-10-03T02:30:51.765Z,11.75
2023-10-03T02:33:24.031Z,11.52
2023-10-03T02:35:52.866Z,12.27
2023-10-03T02:38:30.735Z,12.13
2023-10-03T02:41:00.453Z,12.90
2023-10-03T02:43:34.280Z,11.23
2023-10-03T02:46:05.485Z,12.30
2023-10-03T02:48:36.772Z,12.02
2023-10-03T02:51:07.350Z,12.82
2023-10-03T02:53:36.289Z,12.20
2023-10-03T02:56:05.851Z,11.90
2023-10-03T02:58:36.185Z,11.60
2023-10-03T03:01:05.747Z,12.48
2023-10-03T03:03:35.034Z,11.40
2023-10-03T03:06:12.950Z,12.38
2023-10-03T03:08:45.188Z,12.93
2023-10-03T03:11:15.104Z,11.60
2023-10-03T03:13:44.999Z,11.27
2023-10-03T03:16:15.680Z,11.95
2023-10-03T03:18:47.703Z,12.30
2023-10-03T03:21:17.793Z,13.10
2023-10-03T03:23:57.318Z,11.80
2023-10-03T03:26:37.078Z,11.90
2023-10-03T03:29:20.632Z,12.18
2023-10-03T03:31:50.559Z,13.93
2023-10-03T03:34:19.435Z,14.13
2023-10-03T03:36:51.035Z,13.80
2023-10-03T03:39:22.127Z,13.18
2023-10-03T03:41:51.098Z,12.75
2023-10-03T03:44:22.205Z,14.48
2023-10-03T03:46:50.687Z,14.00
2023-10-03T03:49:20.378Z,13.77
2023-10-03T03:51:49.019Z,14.48
2023-10-03T03:54:17.686Z,13.77
2023-10-03T03:56:46.659Z,14.32
2023-10-03T03:59:15.284Z,13.25
2023-10-03T04:01:44.915Z,12.05
2023-10-03T04:04:13.834Z,12.85
2023-10-03T04:06:43.836Z,13.05
2023-10-03T04:09:12.752Z,13.13
2023-10-03T04:11:42.462Z,12.55
2023-10-03T04:14:11.696Z,12.68
2023-10-03T04:16:44.471Z,13.65
2023-10-03T04:19:14.670Z,14.07
2023-10-03T04:21:43.585Z,13.23
2023-10-03T04:24:13.761Z,11.75
2023-10-03T04:26:43.928Z,13.65
2023-10-03T04:29:14.730Z,13.20
2023-10-03T04:31:43.879Z,13.75
2023-10-03T04:34:16.618Z,13.27
2023-10-03T04:36:48.337Z,12.07
2023-10-03T04:39:16.828Z,14.23
2023-10-03T04:41:46.613Z,12.25
2023-10-03T04:44:18.253Z,12.20
2023-10-03T04:46:47.207Z,11.95
2023-10-03T04:49:16.315Z,11.63
2023-10-03T04:51:48.315Z,12.02
2023-10-03T04:54:18.557Z,12.40
2023-10-03T04:56:49.606Z,12.25
2023-10-03T04:59:20.488Z,12.20
2023-10-03T05:01:49.105Z,13.10
2023-10-03T05:04:17.588Z,12.82
2023-10-03T05:06:50.273Z,13.15
2023-10-03T05:09:19.855Z,13.10
2023-10-03T05:11:50.498Z,13.18
2023-10-03T05:14:19.558Z,12.85
2023-10-03T05:16:51.800Z,13.02
2023-10-03T05:19:20.995Z,13.13
2023-10-03T05:21:50.776Z,13.30
2023-10-03T05:24:20.242Z,12.38
2023-10-03T05:26:49.888Z,12.77
2023-10-03T05:29:17.871Z,12.25
2023-10-03T05:31:46.216Z,11.38
2023-10-03T05:34:16.426Z,13.48
2023-10-03T05:36:45.532Z,11.65
2023-10-03T05:39:17.680Z,12.13
2023-10-03T05:41:48.118Z,11.77
2023-10-03T05:44:19.581Z,12.65
2023-10-03T05:46:53.967Z,12.68
2023-10-03T05:49:22.388Z,12.85
2023-10-03T05:51:51.016Z,12.60
2023-10-03T05:54:21.361Z,13.02
2023-10-03T05:56:50.655Z,12.95
2023-10-03T05:59:19.024Z,13.07
2023-10-03T06:01:47.617Z,13.20
2023-10-03T06:04:16.216Z,12.88
2023-10-03T06:06:44.932Z,12.32
2023-10-03T06:09:13.260Z,12.77
2023-10-03T06:11:43.697Z,11.85
2023-10-03T06:14:13.230Z,12.38
2023-10-03T06:16:41.606Z,13.23
2023-10-03T06:19:11.286Z,13.43
2023-10-03T06:21:40.475Z,14.23
2023-10-03T06:24:09.157Z,13.30
2023-10-03T06:26:37.969Z,12.65
2023-10-03T06:29:07.678Z,12.23
2023-10-03T06:31:36.016Z,11.93
2023-10-03T06:34:05.032Z,11.57
2023-10-03T06:36:33.376Z,12.15
2023-10-03T06:39:02.045Z,12.25
2023-10-03T06:41:30.608Z,11.90
2023-10-03T06:43:58.906Z,12.52
2023-10-03T06:46:28.622Z,11.10
2023-10-03T06:48:57.034Z,11.63
2023-10-03T06:51:25.391Z,11.52
2023-10-03T06:53:54.134Z,10.48
2023-10-03T06:56:23.789Z,10.50
2023-10-03T06:58:52.146Z,9.48
2023-10-03T07:01:20.537Z,10.75
2023-10-03T07:03:50.345Z,10.73
2023-10-03T07:06:18.965Z,10.32
2023-10-03T07:08:47.394Z,10.20
2023-10-03T07:11:17.726Z,11.18
2023-10-03T07:13:46.945Z,10.70
2023-10-03T07:16:17.126Z,11.25
2023-10-03T07:18:45.809Z,11.75
2023-10-03T07:21:17.308Z,11.15
2023-10-03T07:23:46.822Z,13.05
2023-10-03T07:26:15.242Z,12.57
2023-10-03T07:28:43.870Z,12.02
2023-10-03T07:31:15.069Z,11.68
2023-10-03T07:33:45.198Z,12.88
2023-10-03T07:36:18.199Z,13.30
2023-10-03T07:38:47.724Z,12.77
2023-10-03T07:41:18.202Z,11.48
2023-10-03T07:43:48.645Z,12.43
2023-10-03T07:46:26.564Z,11.57
2023-10-03T07:49:02.122Z,11.80
2023-10-03T07:51:33.483Z,11.05
2023-10-03T07:54:04.149Z,11.05
2023-10-03T07:56:34.096Z,10.98
2023-10-03T07:59:05.192Z,10.63
2023-10-03T08:01:57.366Z,10.57
2023-10-03T08:04:34.929Z,10.65
2023-10-03T08:07:07.201Z,10.80
2023-10-03T08:09:36.017Z,10.52
2023-10-03T08:12:12.651Z,9.48
2023-10-03T08:14:43.109Z,9.60
2023-10-03T08:17:12.906Z,9.50
2023-10-03T08:19:45.738Z,8.60
2023-10-03T08:22:15.777Z,8.23
2023-10-03T08:24:45.934Z,8.10
2023-10-03T08:27:19.457Z,8.43
2023-10-03T08:29:52.143Z,7.53
2023-10-03T08:32:20.802Z,8.25
2023-10-03T08:34:49.143Z,7.97
2023-10-03T08:37:22.422Z,7.05
2023-10-03T08:39:51.554Z,7.40
2023-10-03T08:42:21.537Z,6.30
2023-10-03T08:44:57.588Z,6.90
2023-10-03T08:47:31.374Z,6.72
2023-10-03T08:50:11.699Z,7.22
2023-10-03T08:52:48.221Z,6.22
2023-10-03T08:55:20.314Z,7.15
2023-10-03T08:57:49.741Z,7.38
2023-10-03T09:00:18.617Z,6.55
2023-10-03T09:02:54.393Z,6.68
2023-10-03T09:05:25.507Z,6.82
2023-10-03T09:07:59.755Z,6.57
2023-10-03T09:10:30.223Z,6.25
2023-10-03T09:13:05.072Z,6.35
2023-10-03T09:15:38.626Z,6.07
2023-10-03T09:18:10.991Z,6.53
2023-10-03T09:20:40.920Z,6.68
2023-10-03T09:23:16.114Z,6.72
2023-10-03T09:25:53.430Z,6.75
2023-10-03T09:28:28.724Z,6.35
2023-10-03T09:30:58.273Z,6.30
2023-10-03T09:33:26.909Z,6.35
2023-10-03T09:35:59.217Z,6.60
2023-10-03T09:38:43.514Z,6.15
2023-10-03T09:41:19.155Z,6.10
2023-10-03T09:43:50.284Z,5.95
2023-10-03T09:46:27.481Z,5.68
2023-10-03T09:48:56.524Z,5.68
2023-10-03T09:51:47.131Z,5.90
2023-10-03T09:54:31.675Z,6.20
2023-10-03T09:57:02.008Z,5.85
2023-10-03T09:59:33.767Z,5.63
2023-10-03T10:02:03.499Z,5.43
2023-10-03T10:04:38.638Z,6.47
2023-10-03T10:07:17.820Z,5.95
2023-10-03T10:09:55.403Z,5.55
2023-10-03T10:12:23.805Z,5.82
2023-10-03T10:15:14.609Z,5.65
2023-10-03T10:17:47.245Z,5.95
2023-10-03T10:20:18.670Z,6.10
2023-10-03T10:23:14.178Z,5.32
2023-10-03T10:25:44.820Z,5.57
2023-10-03T10:28:15.828Z,5.40
2023-10-03T10:31:04.429Z,5.50
2023-10-03T10:33:32.888Z,5.60
2023-10-03T10:36:04.454Z,5.68
2023-10-03T10:38:48.880Z,6.07
2023-10-03T10:41:27.745Z,5.50
2023-10-03T10:44:09.550Z,5.90
2023-10-03T10:46:39.793Z,6.00
2023-10-03T10:49:08.787Z,5.60
2023-10-03T10:51:37.478Z,5.13
2023-10-03T10:54:06.298Z,5.72
2023-10-03T10:56:36.179Z,5.53
2023-10-03T10:59:06.816Z,5.93
2023-10-03T11:01:43.174Z,5.95
2023-10-03T11:04:28.775Z,5.78
2023-10-03T11:06:57.226Z,5.70
2023-10-03T11:09:25.584Z,5.72
2023-10-03T11:11:56.327Z,5.30
2023-10-03T11:14:30.475Z,5.72
2023-10-03T11:16:59.791Z,5.72
2023-10-03T11:19:28.835Z,6.05
2023-10-03T11:21:57.241Z,6.07
2023-10-03T11:24:26.556Z,6.18
2023-10-03T11:26:58.296Z,6.00
2023-10-03T11:29:44.450Z,6.25
2023-10-03T11:32:20.443Z,6.53
2023-10-03T11:34:49.933Z,7.05
2023-10-03T11:37:31.080Z,7.00
2023-10-03T11:40:14.189Z,6.88
2023-10-03T11:42:54.023Z,6.78
2023-10-03T11:45:23.326Z,6.90
2023-10-03T11:48:06.840Z,5.82
2023-10-03T11:50:36.309Z,6.75
2023-10-03T11:53:05.203Z,6.78
2023-10-03T11:55:34.350Z,6.25
2023-10-03T11:58:04.132Z,6.00
2023-10-03T12:00:32.501Z,5.88
2023-10-03T12:03:03.809Z,6.38
2023-10-03T12:05:32.282Z,6.30
2023-10-03T12:08:04.512Z,6.03
2023-10-03T12:10:33.011Z,6.03
2023-10-03T12:13:01.384Z,6.55
2023-10-03T12:15:32.273Z,5.88
2023-10-03T12:18:01.695Z,6.18
2023-10-03T12:20:37.250Z,6.25
2023-10-03T12:23:10.749Z,6.53
2023-10-03T12:25:41.036Z,7.20
2023-10-03T12:28:16.052Z,6.55
2023-10-03T12:30:51.599Z,6.55
2023-10-03T12:33:33.754Z,6.15
2023-10-03T12:36:12.510Z,6.65
2023-10-03T12:38:47.401Z,6.07
2023-10-03T12:41:20.093Z,5.85
2023-10-03T12:43:53.405Z,6.43
2023-10-03T12:46:33.943Z,7.05
2023-10-03T12:49:13.129Z,7.57
2023-10-03T12:51:53.669Z,6.55
2023-10-03T12:54:33.864Z,6.63
2023-10-03T12:57:11.640Z,4.60
2023-10-03T12:59:45.341Z,4.40
2023-10-03T13:02:20.713Z,4.53
2023-10-03T13:04:56.990Z,4.10
2023-10-03T13:07:30.817Z,4.10
2023-10-03T13:10:03.705Z,3.47
2023-10-03T13:12:35.346Z,3.25
2023-10-03T13:15:04.312Z,3.85
2023-10-03T13:17:38.645Z,2.65
2023-10-03T13:20:12.622Z,2.92
2023-10-03T13:22:44.230Z,2.90
2023-10-03T13:25:25.390Z,2.38
2023-10-03T13:27:55.646Z,2.08
2023-10-03T13:30:28.825Z,2.50
2023-10-03T13:33:05.105Z,2.47
2023-10-03T13:35:44.203Z,2.58
2023-10-03T13:38:22.362Z,2.50
2023-10-03T13:40:52.947Z,2.40
2023-10-03T13:43:22.223Z,2.90
2023-10-03T13:45:50.665Z,2.63
2023-10-03T13:48:20.532Z,2.78
2023-10-03T13:50:49.349Z,3.15
2023-10-03T13:53:21.574Z,3.45
2023-10-03T13:55:50.017Z,3.45
2023-10-03T13:58:18.590Z,3.40
2023-10-03T14:00:47.044Z,3.13
2023-10-03T14:03:19.412Z,3.53
2023-10-03T14:05:49.650Z,8.68
2023-10-03T14:08:18.286Z,4.50
2023-10-03T14:10:46.892Z,3.58
2023-10-03T14:13:15.386Z,3.35
2023-10-03T14:15:44.552Z,3.25
2023-10-03T14:18:14.031Z,4.10
2023-10-03T14:20:42.948Z,4.00
2023-10-03T14:23:13.266Z,3.45
2023-10-03T14:25:41.614Z,4.30
2023-10-03T14:28:12.021Z,3.75
2023-10-03T14:30:42.176Z,3.85
2023-10-03T14:33:12.133Z,3.88
2023-10-03T14:35:43.578Z,3.92
2023-10-03T14:38:13.616Z,3.88
2023-10-03T14:40:42.186Z,3.70
2023-10-03T14:43:11.986Z,3.35
2023-10-03T14:45:40.493Z,3.20
2023-10-03T14:48:09.196Z,3.22
2023-10-03T14:50:38.150Z,1.92
2023-10-03T14:53:06.608Z,1.63
2023-10-03T14:55:36.399Z,1.40
2023-10-03T14:58:04.838Z,1.38
2023-10-03T15:00:36.022Z,1.48
2023-10-03T15:03:06.897Z,1.60
2023-10-03T15:05:35.634Z,1.70
2023-10-03T15:08:04.927Z,1.38
2023-10-03T15:10:33.378Z,1.40
2023-10-03T15:13:04.666Z,1.52
2023-10-03T15:15:33.712Z,1.63
2023-10-03T15:18:02.182Z,1.63
2023-10-03T15:20:31.437Z,1.27
2023-10-03T15:23:01.892Z,1.35
2023-10-03T15:25:30.711Z,1.80
2023-10-03T15:28:00.214Z,1.77
2023-10-03T15:30:31.758Z,1.50
2023-10-03T15:33:00.782Z,1.67
2023-10-03T15:35:29.361Z,1.65
2023-10-03T15:37:57.685Z,1.73
2023-10-03T15:40:28.698Z,1.65
2023-10-03T15:42:57.323Z,1.65
2023-10-03T15:45:25.920Z,1.52
2023-10-03T15:47:55.908Z,1.60
2023-10-03T15:50:24.408Z,1.83
2023-10-03T15:52:54.462Z,1.45
2023-10-03T15:55:22.955Z,1.80
2023-10-03T15:57:51.287Z,1.42
2023-10-03T16:00:20.895Z,1.73
2023-10-03T16:02:49.499Z,1.65
2023-10-03T16:05:19.844Z,1.58
2023-10-03T16:10:19.736Z,1.65
2023-10-03T16:12:48.418Z,1.50
2023-10-03T16:15:16.779Z,2.08
2023-10-03T16:17:45.194Z,1.55
2023-10-03T16:20:14.604Z,1.83
2023-10-03T16:22:44.373Z,1.70
2023-10-03T16:25:12.762Z,1.60
2023-10-03T16:27:41.137Z,1.30
2023-10-03T16:30:10.021Z,1.45
2023-10-03T16:32:38.554Z,1.25
2023-10-03T16:35:08.516Z,1.63
2023-10-03T16:37:36.973Z,1.35
2023-10-03T16:40:07.739Z,1.50
2023-10-03T16:42:37.518Z,1.40
2023-10-03T16:45:10.767Z,1.60
2023-10-03T16:47:39.569Z,1.40
2023-10-03T16:50:11.679Z,1.70
2023-10-03T16:52:40.754Z,1.92
2023-10-03T16:55:11.191Z,2.00
2023-10-03T16:57:39.661Z,2.20
2023-10-03T17:00:13.866Z,2.17
2023-10-03T17:02:42.914Z,2.22
2023-10-03T17:05:11.521Z,2.13
2023-10-03T17:07:40.440Z,2.20
2023-10-03T17:10:09.747Z,2.50
2023-10-03T17:12:39.513Z,2.03
2023-10-03T17:15:10.360Z,2.20
2023-10-03T17:17:40.763Z,1.70
2023-10-03T17:20:12.117Z,1.98
2023-10-03T17:22:41.301Z,1.95
2023-10-03T17:25:10.401Z,2.20
2023-10-03T17:27:41.794Z,1.83
2023-10-03T17:30:12.607Z,2.00
2023-10-03T17:32:41.825Z,2.00
2023-10-03T17:35:11.350Z,2.00
2023-10-03T17:37:40.757Z,1.85
2023-10-03T17:40:13.551Z,1.90
2023-10-03T17:42:43.308Z,2.28
2023-10-03T17:45:12.679Z,2.15
2023-10-03T17:47:42.052Z,2.05
2023-10-03T17:50:12.862Z,2.13
2023-10-03T17:52:41.329Z,1.75
2023-10-03T17:55:10.101Z,2.70
2023-10-03T17:57:38.520Z,2.55
2023-10-03T18:00:13.207Z,2.60
2023-10-03T18:02:42.675Z,2.17
2023-10-03T18:05:11.816Z,2.33
2023-10-03T18:07:41.810Z,2.00
2023-10-03T18:10:11.448Z,2.60
2023-10-03T18:12:41.861Z,2.30
2023-10-03T18:15:13.037Z,1.98
2023-10-03T18:17:41.721Z,2.00
2023-10-03T18:20:11.221Z,1.85
2023-10-03T18:22:42.040Z,2.38
2023-10-03T18:25:11.130Z,2.15
2023-10-03T18:27:39.525Z,2.20
2023-10-03T18:30:10.635Z,2.60
2023-10-03T18:32:40.461Z,2.55
2023-10-03T18:35:09.339Z,2.63
2023-10-03T18:37:38.935Z,2.13
2023-10-03T18:40:11.261Z,1.80
2023-10-03T18:42:40.601Z,1.92
2023-10-03T18:45:09.746Z,2.72
2023-10-03T18:47:38.948Z,2.50
2023-10-03T18:50:09.686Z,2.08
2023-10-03T18:52:40.174Z,2.33
2023-10-03T18:55:10.087Z,2.58
2023-10-03T18:57:38.561Z,2.47
2023-10-03T19:00:07.679Z,2.22
2023-10-03T19:02:36.205Z,2.17
2023-10-03T19:05:05.505Z,2.22
2023-10-03T19:07:37.948Z,2.55
2023-10-03T19:10:07.561Z,2.42
2023-10-03T19:12:36.056Z,2.28
2023-10-03T19:15:04.478Z,1.98
2023-10-03T19:17:33.537Z,2.00
2023-10-03T19:20:01.990Z,2.33
2023-10-03T19:22:30.294Z,2.30
2023-10-03T19:25:02.613Z,2.08
2023-10-03T19:27:31.100Z,2.35
2023-10-03T19:29:59.464Z,2.03
2023-10-03T19:32:27.922Z,1.90
2023-10-03T19:34:56.384Z,2.15
2023-10-03T19:37:24.720Z,2.00
2023-10-03T19:39:53.125Z,2.30
2023-10-03T19:42:23.016Z,2.17
2023-10-03T19:44:52.118Z,2.22
2023-10-03T19:47:20.718Z,2.03
2023-10-03T19:49:49.516Z,2.30
2023-10-03T19:52:17.869Z,2.00
2023-10-03T19:54:46.180Z,2.30
2023-10-03T19:57:14.665Z,2.65
2023-10-03T19:59:44.361Z,2.00
2023-10-03T20:02:14.571Z,2.03
2023-10-03T20:04:43.257Z,2.30
2023-10-03T20:07:11.592Z,2.25
2023-10-03T20:09:39.941Z,2.20
2023-10-03T20:12:09.408Z,2.28
2023-10-03T20:14:38.293Z,2.00
2023-10-03T20:17:09.230Z,1.95
2023-10-03T20:19:37.647Z,2.10
2023-10-03T20:22:06.782Z,1.98
2023-10-03T20:24:35.147Z,2.30
2023-10-03T20:27:03.487Z,2.47
2023-10-03T20:29:32.653Z,2.20
2023-10-03T20:32:04.269Z,2.20
2023-10-03T20:34:34.048Z,2.47
2023-10-03T20:37:02.413Z,2.45
2023-10-03T20:39:34.623Z,2.28
2023-10-03T20:42:03.642Z,1.98
2023-10-03T20:44:31.963Z,2.28
2023-10-03T20:47:02.435Z,2.42
2023-10-03T20:49:31.126Z,2.38
2023-10-03T20:52:00.796Z,2.25
2023-10-03T20:54:29.182Z,2.35
2023-10-03T20:56:57.699Z,2.97
2023-10-03T20:59:26.067Z,2.28
2023-10-03T21:01:54.464Z,2.28
2023-10-03T21:04:22.927Z,2.30
2023-10-03T21:06:51.781Z,2.40
2023-10-03T21:09:23.122Z,2.60
2023-10-03T21:11:51.632Z,2.85
2023-10-03T21:14:20.008Z,2.47
2023-10-03T21:16:48.430Z,2.58
2023-10-03T21:19:16.836Z,2.45
2023-10-03T21:21:45.312Z,2.38
2023-10-03T21:24:13.670Z,2.38
2023-10-03T21:26:43.413Z,2.60
2023-10-03T21:29:11.722Z,2.63
2023-10-03T21:31:40.160Z,2.60
2023-10-03T21:34:08.723Z,2.47
2023-10-03T21:36:37.386Z,2.60
2023-10-03T21:39:06.122Z,3.28
2023-10-03T21:41:34.729Z,2.85
2023-10-03T21:44:08.432Z,2.75
2023-10-03T21:46:39.844Z,2.63
2023-10-03T21:49:08.192Z,3.00
2023-10-03T21:51:36.563Z,2.75
2023-10-03T21:54:04.966Z,2.88
2023-10-03T21:56:33.578Z,3.20
2023-10-03T21:59:02.292Z,2.90
2023-10-03T22:01:32.118Z,2.30
2023-10-03T22:04:00.582Z,3.13
2023-10-03T22:06:29.140Z,2.90
2023-10-03T22:08:58.397Z,2.72
2023-10-03T22:11:26.948Z,2.70
2023-10-03T22:13:55.269Z,3.10
2023-10-03T22:16:23.861Z,2.72
2023-10-03T22:18:53.666Z,2.83
2023-10-03T22:21:22.070Z,2.70
2023-10-03T22:23:50.530Z,2.55
2023-10-03T22:26:18.937Z,3.00
2023-10-03T22:28:47.286Z,2.38
2023-10-03T22:31:17.379Z,2.45
2023-10-03T22:33:49.097Z,2.80
2023-10-03T22:36:20.462Z,2.90
2023-10-03T22:38:50.982Z,2.85
2023-10-03T22:41:19.358Z,2.60
2023-10-03T22:43:48.157Z,2.80
2023-10-03T22:46:16.529Z,2.97
2023-10-03T22:48:44.852Z,3.13
2023-10-03T22:51:13.402Z,3.03
2023-10-03T22:53:43.608Z,2.80
2023-10-03T22:56:12.434Z,3.20
2023-10-03T22:58:41.552Z,2.85
2023-10-03T23:01:09.941Z,3.15
2023-10-03T23:03:38.324Z,2.75
2023-10-03T23:06:06.901Z,3.78
2023-10-03T23:08:35.276Z,3.40
2023-10-03T23:11:05.910Z,3.22
2023-10-03T23:13:34.253Z,3.17
2023-10-03T23:16:02.757Z,3.20
2023-10-03T23:18:31.239Z,3.22
2023-10-03T23:21:00.964Z,2.67
2023-10-03T23:23:30.345Z,2.38
2023-10-03T23:25:59.490Z,2.80
2023-10-03T23:28:30.148Z,3.05
2023-10-03T23:30:58.539Z,3.10
2023-10-03T23:33:26.983Z,2.70
2023-10-03T23:35:55.442Z,3.38
2023-10-03T23:38:24.112Z,2.80
2023-10-03T23:40:52.494Z,2.75
2023-10-03T23:43:20.878Z,3.00
2023-10-03T23:45:51.971Z,2.97
2023-10-03T23:48:20.396Z,2.85
2023-10-03T23:50:48.755Z,2.60
2023-10-03T23:53:18.473Z,2.53
2023-10-03T23:55:48.237Z,2.58
2023-10-03T23:58:16.771Z,2.42
